sensor_id;sensor_type;location;lat;lon;timestamp;P1;durP1;ratioP1;P2;durP2;ratioP2
12224;SDS011;6175;50.956;11.064;2023-03-01T00:01:55;18.03;;;12.83;;
12224;SDS011;6175;50.956;11.064;2023-03-01T00:04:22;20.13;;;13.60;;
12224;SDS011;6175;50.956;11.064;2023-03-01T00:06:49;18.63;;;13.03;;
12224;SDS011;6175;50.956;11.064;2023-03-01T00:09:17;21.03;;;12.77;;
12224;SDS011;6175;50.956;11.064;2023-03-01T00:11:45;18.90;;;13.43;;
12224;SDS011;6175;50.956;11.064;2023-03-01T00:14:12;19.90;;;13.17;;
12224;SDS011;6175;50.956;11.064;2023-03-01T00:16:41;18.23;;;12.40;;
12224;SDS011;6175;50.956;11.064;2023-03-01T00:19:11;20.03;;;13.10;;
12224;SDS011;6175;50.956;11.064;2023-03-01T00:21:39;16.83;;;11.93;;
12224;SDS011;6175;50.956;11.064;2023-03-01T00:24:06;20.13;;;13.57;;
12224;SDS011;6175;50.956;11.064;2023-03-01T00:26:35;19.87;;;13.33;;
12224;SDS011;6175;50.956;11.064;2023-03-01T00:29:02;23.17;;;13.60;;
12224;SDS011;6175;50.956;11.064;2023-03-01T00:31:30;18.93;;;13.83;;
12224;SDS011;6175;50.956;11.064;2023-03-01T00:33:59;19.23;;;13.57;;
12224;SDS011;6175;50.956;11.064;2023-03-01T00:36:31;18.20;;;13.03;;
12224;SDS011;6175;50.956;11.064;2023-03-01T00:38:59;19.00;;;13.10;;
12224;SDS011;6175;50.956;11.064;2023-03-01T00:41:27;16.93;;;12.50;;
12224;SDS011;6175;50.956;11.064;2023-03-01T00:43:56;18.43;;;12.83;;
12224;SDS011;6175;50.956;11.064;2023-03-01T00:46:24;18.03;;;13.30;;
12224;SDS011;6175;50.956;11.064;2023-03-01T00:48:52;22.20;;;14.87;;
12224;SDS011;6175;50.956;11.064;2023-03-01T00:51:20;20.40;;;13.90;;
12224;SDS011;6175;50.956;11.064;2023-03-01T00:53:51;20.00;;;13.47;;
12224;SDS011;6175;50.956;11.064;2023-03-01T00:56:19;18.57;;;13.50;;
12224;SDS011;6175;50.956;11.064;2023-03-01T00:58:46;19.70;;;14.53;;
12224;SDS011;6175;50.956;11.064;2023-03-01T01:01:16;19.87;;;14.27;;
12224;SDS011;6175;50.956;11.064;2023-03-01T01:03:45;19.87;;;13.37;;
12224;SDS011;6175;50.956;11.064;2023-03-01T01:06:13;18.23;;;13.60;;
12224;SDS011;6175;50.956;11.064;2023-03-01T01:08:40;18.57;;;12.67;;
12224;SDS011;6175;50.956;11.064;2023-03-01T01:11:08;18.47;;;12.70;;
12224;SDS011;6175;50.956;11.064;2023-03-01T01:13:35;19.57;;;13.77;;
12224;SDS011;6175;50.956;11.064;2023-03-01T01:16:04;17.37;;;12.23;;
12224;SDS011;6175;50.956;11.064;2023-03-01T01:18:33;18.17;;;12.73;;
12224;SDS011;6175;50.956;11.064;2023-03-01T01:21:04;19.80;;;14.37;;
12224;SDS011;6175;50.956;11.064;2023-03-01T01:23:32;19.20;;;12.83;;
12224;SDS011;6175;50.956;11.064;2023-03-01T01:26:02;17.93;;;13.03;;
12224;SDS011;6175;50.956;11.064;2023-03-01T01:28:30;18.77;;;13.40;;
12224;SDS011;6175;50.956;11.064;2023-03-01T01:30:57;21.07;;;15.00;;
12224;SDS011;6175;50.956;11.064;2023-03-01T01:33:25;19.23;;;14.00;;
12224;SDS011;6175;50.956;11.064;2023-03-01T01:35:53;18.47;;;13.40;;
12224;SDS011;6175;50.956;11.064;2023-03-01T01:38:20;19.87;;;13.93;;
12224;SDS011;6175;50.956;11.064;2023-03-01T01:40:48;21.77;;;13.30;;
12224;SDS011;6175;50.956;11.064;2023-03-01T01:43:19;19.57;;;14.57;;
12224;SDS011;6175;50.956;11.064;2023-03-01T01:45:48;20.03;;;13.43;;
12224;SDS011;6175;50.956;11.064;2023-03-01T01:48:16;18.53;;;13.13;;
12224;SDS011;6175;50.956;11.064;2023-03-01T01:50:49;25.47;;;14.10;;
12224;SDS011;6175;50.956;11.064;2023-03-01T01:53:22;22.87;;;15.67;;
12224;SDS011;6175;50.956;11.064;2023-03-01T01:55:51;21.17;;;15.10;;
12224;SDS011;6175;50.956;11.064;2023-03-01T01:58:22;20.73;;;14.57;;
12224;SDS011;6175;50.956;11.064;2023-03-01T02:00:51;19.67;;;14.40;;
12224;SDS011;6175;50.956;11.064;2023-03-01T02:03:19;22.47;;;14.27;;
12224;SDS011;6175;50.956;11.064;2023-03-01T02:05:50;21.73;;;14.90;;
12224;SDS011;6175;50.956;11.064;2023-03-01T02:08:23;23.10;;;16.23;;
12224;SDS011;6175;50.956;11.064;2023-03-01T02:10:52;22.37;;;15.80;;
12224;SDS011;6175;50.956;11.064;2023-03-01T02:13:20;23.07;;;15.20;;
12224;SDS011;6175;50.956;11.064;2023-03-01T02:15:47;20.47;;;15.77;;
12224;SDS011;6175;50.956;11.064;2023-03-01T02:18:14;20.77;;;14.97;;
12224;SDS011;6175;50.956;11.064;2023-03-01T02:20:44;21.17;;;14.53;;
12224;SDS011;6175;50.956;11.064;2023-03-01T02:23:19;22.40;;;15.53;;
12224;SDS011;6175;50.956;11.064;2023-03-01T02:25:49;20.90;;;14.63;;
12224;SDS011;6175;50.956;11.064;2023-03-01T02:28:24;22.70;;;15.10;;
12224;SDS011;6175;50.956;11.064;2023-03-01T02:31:01;21.13;;;14.97;;
12224;SDS011;6175;50.956;11.064;2023-03-01T02:33:48;20.63;;;14.47;;
12224;SDS011;6175;50.956;11.064;2023-03-01T02:36:15;18.47;;;14.50;;
12224;SDS011;6175;50.956;11.064;2023-03-01T02:38:45;20.63;;;14.30;;
12224;SDS011;6175;50.956;11.064;2023-03-01T02:41:15;22.47;;;15.93;;
12224;SDS011;6175;50.956;11.064;2023-03-01T02:43:44;21.23;;;14.97;;
12224;SDS011;6175;50.956;11.064;2023-03-01T02:46:14;21.20;;;15.17;;
12224;SDS011;6175;50.956;11.064;2023-03-01T02:48:43;21.10;;;15.53;;
12224;SDS011;6175;50.956;11.064;2023-03-01T02:51:23;20.93;;;15.20;;
12224;SDS011;6175;50.956;11.064;2023-03-01T02:54:01;20.27;;;15.23;;
12224;SDS011;6175;50.956;11.064;2023-03-01T02:56:36;24.20;;;16.77;;
12224;SDS011;6175;50.956;11.064;2023-03-01T02:59:05;26.93;;;17.77;;
12224;SDS011;6175;50.956;11.064;2023-03-01T03:01:32;24.53;;;17.47;;
12224;SDS011;6175;50.956;11.064;2023-03-01T03:04:03;25.87;;;17.30;;
12224;SDS011;6175;50.956;11.064;2023-03-01T03:06:31;24.73;;;17.27;;
12224;SDS011;6175;50.956;11.064;2023-03-01T03:08:58;23.57;;;17.33;;
12224;SDS011;6175;50.956;11.064;2023-03-01T03:11:26;23.40;;;16.60;;
12224;SDS011;6175;50.956;11.064;2023-03-01T03:13:53;23.37;;;16.60;;
12224;SDS011;6175;50.956;11.064;2023-03-01T03:16:22;24.10;;;16.67;;
12224;SDS011;6175;50.956;11.064;2023-03-01T03:18:49;29.17;;;19.30;;
12224;SDS011;6175;50.956;11.064;2023-03-01T03:21:17;27.07;;;19.03;;
12224;SDS011;6175;50.956;11.064;2023-03-01T03:23:44;25.37;;;17.93;;
12224;SDS011;6175;50.956;11.064;2023-03-01T03:26:11;26.47;;;18.17;;
12224;SDS011;6175;50.956;11.064;2023-03-01T03:28:40;26.57;;;17.60;;
12224;SDS011;6175;50.956;11.064;2023-03-01T03:31:07;23.80;;;17.70;;
12224;SDS011;6175;50.956;11.064;2023-03-01T03:33:36;23.07;;;16.73;;
12224;SDS011;6175;50.956;11.064;2023-03-01T03:36:03;30.60;;;19.37;;
12224;SDS011;6175;50.956;11.064;2023-03-01T03:38:30;29.00;;;18.97;;
12224;SDS011;6175;50.956;11.064;2023-03-01T03:41:02;27.07;;;17.73;;
12224;SDS011;6175;50.956;11.064;2023-03-01T03:43:31;25.13;;;16.93;;
12224;SDS011;6175;50.956;11.064;2023-03-01T03:45:59;25.40;;;17.00;;
12224;SDS011;6175;50.956;11.064;2023-03-01T03:48:30;25.03;;;16.60;;
12224;SDS011;6175;50.956;11.064;2023-03-01T03:50:59;25.83;;;18.03;;
12224;SDS011;6175;50.956;11.064;2023-03-01T03:53:26;27.23;;;19.27;;
12224;SDS011;6175;50.956;11.064;2023-03-01T03:55:53;29.17;;;18.97;;
12224;SDS011;6175;50.956;11.064;2023-03-01T03:58:21;23.73;;;18.30;;
12224;SDS011;6175;50.956;11.064;2023-03-01T04:00:50;31.03;;;19.73;;
12224;SDS011;6175;50.956;11.064;2023-03-01T04:03:20;26.40;;;17.67;;
12224;SDS011;6175;50.956;11.064;2023-03-01T04:05:48;26.17;;;17.43;;
12224;SDS011;6175;50.956;11.064;2023-03-01T04:08:17;31.27;;;19.77;;
12224;SDS011;6175;50.956;11.064;2023-03-01T04:10:46;28.40;;;19.07;;
12224;SDS011;6175;50.956;11.064;2023-03-01T04:13:15;28.63;;;19.67;;
12224;SDS011;6175;50.956;11.064;2023-03-01T04:15:44;29.43;;;20.00;;
12224;SDS011;6175;50.956;11.064;2023-03-01T04:18:12;28.40;;;19.53;;
12224;SDS011;6175;50.956;11.064;2023-03-01T04:20:39;28.67;;;18.83;;
12224;SDS011;6175;50.956;11.064;2023-03-01T04:23:07;27.47;;;18.27;;
12224;SDS011;6175;50.956;11.064;2023-03-01T04:25:44;24.60;;;16.80;;
12224;SDS011;6175;50.956;11.064;2023-03-01T04:28:14;25.57;;;17.20;;
12224;SDS011;6175;50.956;11.064;2023-03-01T04:30:41;24.53;;;17.93;;
12224;SDS011;6175;50.956;11.064;2023-03-01T04:33:08;27.37;;;16.93;;
12224;SDS011;6175;50.956;11.064;2023-03-01T04:35:36;31.80;;;19.40;;
12224;SDS011;6175;50.956;11.064;2023-03-01T04:38:03;28.63;;;19.77;;
12224;SDS011;6175;50.956;11.064;2023-03-01T04:40:31;28.83;;;19.40;;
12224;SDS011;6175;50.956;11.064;2023-03-01T04:42:59;25.83;;;17.37;;
12224;SDS011;6175;50.956;11.064;2023-03-01T04:45:27;26.87;;;18.23;;
12224;SDS011;6175;50.956;11.064;2023-03-01T04:47:54;29.30;;;19.10;;
12224;SDS011;6175;50.956;11.064;2023-03-01T04:50:23;29.67;;;19.37;;
12224;SDS011;6175;50.956;11.064;2023-03-01T04:52:50;29.63;;;20.30;;
12224;SDS011;6175;50.956;11.064;2023-03-01T04:55:18;26.77;;;18.13;;
12224;SDS011;6175;50.956;11.064;2023-03-01T04:57:45;23.93;;;16.87;;
12224;SDS011;6175;50.956;11.064;2023-03-01T05:00:15;26.30;;;18.57;;
12224;SDS011;6175;50.956;11.064;2023-03-01T05:02:49;25.80;;;16.67;;
12224;SDS011;6175;50.956;11.064;2023-03-01T05:05:19;25.87;;;18.00;;
12224;SDS011;6175;50.956;11.064;2023-03-01T05:07:54;26.53;;;17.53;;
12224;SDS011;6175;50.956;11.064;2023-03-01T05:10:22;27.10;;;17.37;;
12224;SDS011;6175;50.956;11.064;2023-03-01T05:12:50;25.10;;;17.33;;
12224;SDS011;6175;50.956;11.064;2023-03-01T05:15:19;25.13;;;18.17;;
12224;SDS011;6175;50.956;11.064;2023-03-01T05:17:50;26.43;;;18.57;;
12224;SDS011;6175;50.956;11.064;2023-03-01T05:20:17;27.17;;;18.00;;
12224;SDS011;6175;50.956;11.064;2023-03-01T05:22:47;24.60;;;17.73;;
12224;SDS011;6175;50.956;11.064;2023-03-01T05:25:14;34.33;;;21.10;;
12224;SDS011;6175;50.956;11.064;2023-03-01T05:27:42;41.47;;;25.40;;
12224;SDS011;6175;50.956;11.064;2023-03-01T05:30:10;37.60;;;24.27;;
12224;SDS011;6175;50.956;11.064;2023-03-01T05:32:42;34.30;;;23.63;;
12224;SDS011;6175;50.956;11.064;2023-03-01T05:35:11;31.00;;;21.50;;
12224;SDS011;6175;50.956;11.064;2023-03-01T05:37:42;36.17;;;22.73;;
12224;SDS011;6175;50.956;11.064;2023-03-01T05:40:11;29.67;;;20.70;;
12224;SDS011;6175;50.956;11.064;2023-03-01T05:42:43;35.17;;;21.60;;
12224;SDS011;6175;50.956;11.064;2023-03-01T05:45:11;30.93;;;21.93;;
12224;SDS011;6175;50.956;11.064;2023-03-01T05:47:39;35.57;;;22.17;;
12224;SDS011;6175;50.956;11.064;2023-03-01T05:50:12;32.43;;;21.40;;
12224;SDS011;6175;50.956;11.064;2023-03-01T05:52:44;36.17;;;22.97;;
12224;SDS011;6175;50.956;11.064;2023-03-01T05:55:11;34.23;;;22.07;;
12224;SDS011;6175;50.956;11.064;2023-03-01T05:57:38;32.63;;;21.17;;
12224;SDS011;6175;50.956;11.064;2023-03-01T06:00:07;32.13;;;21.20;;
12224;SDS011;6175;50.956;11.064;2023-03-01T06:02:35;33.77;;;21.93;;
12224;SDS011;6175;50.956;11.064;2023-03-01T06:05:03;32.17;;;20.83;;
12224;SDS011;6175;50.956;11.064;2023-03-01T06:07:32;32.70;;;21.77;;
12224;SDS011;6175;50.956;11.064;2023-03-01T06:09:59;29.23;;;20.67;;
12224;SDS011;6175;50.956;11.064;2023-03-01T06:12:29;27.83;;;20.20;;
12224;SDS011;6175;50.956;11.064;2023-03-01T06:14:56;29.00;;;20.97;;
12224;SDS011;6175;50.956;11.064;2023-03-01T06:17:24;26.50;;;18.73;;
12224;SDS011;6175;50.956;11.064;2023-03-01T06:19:51;26.73;;;18.27;;
12224;SDS011;6175;50.956;11.064;2023-03-01T06:22:18;31.43;;;20.13;;
12224;SDS011;6175;50.956;11.064;2023-03-01T06:24:46;33.17;;;20.27;;
12224;SDS011;6175;50.956;11.064;2023-03-01T06:27:14;29.60;;;19.63;;
12224;SDS011;6175;50.956;11.064;2023-03-01T06:29:41;31.67;;;19.90;;
12224;SDS011;6175;50.956;11.064;2023-03-01T06:32:08;30.17;;;20.27;;
12224;SDS011;6175;50.956;11.064;2023-03-01T06:34:35;31.50;;;19.40;;
12224;SDS011;6175;50.956;11.064;2023-03-01T06:37:02;30.30;;;19.97;;
12224;SDS011;6175;50.956;11.064;2023-03-01T06:39:30;30.33;;;20.37;;
12224;SDS011;6175;50.956;11.064;2023-03-01T06:41:59;32.63;;;21.03;;
12224;SDS011;6175;50.956;11.064;2023-03-01T06:44:26;33.00;;;20.53;;
12224;SDS011;6175;50.956;11.064;2023-03-01T06:46:53;34.60;;;22.03;;
12224;SDS011;6175;50.956;11.064;2023-03-01T06:49:21;35.47;;;22.80;;
12224;SDS011;6175;50.956;11.064;2023-03-01T06:51:48;34.77;;;20.93;;
12224;SDS011;6175;50.956;11.064;2023-03-01T06:54:15;31.40;;;20.27;;
12224;SDS011;6175;50.956;11.064;2023-03-01T06:56:42;27.93;;;19.60;;
12224;SDS011;6175;50.956;11.064;2023-03-01T06:59:11;30.20;;;18.93;;
12224;SDS011;6175;50.956;11.064;2023-03-01T07:01:38;28.67;;;19.07;;
12224;SDS011;6175;50.956;11.064;2023-03-01T07:04:05;26.83;;;18.37;;
12224;SDS011;6175;50.956;11.064;2023-03-01T07:06:32;28.50;;;17.83;;
12224;SDS011;6175;50.956;11.064;2023-03-01T07:08:59;27.50;;;18.93;;
12224;SDS011;6175;50.956;11.064;2023-03-01T07:11:26;29.80;;;19.87;;
12224;SDS011;6175;50.956;11.064;2023-03-01T07:13:54;27.67;;;18.77;;
12224;SDS011;6175;50.956;11.064;2023-03-01T07:16:22;26.37;;;18.93;;
12224;SDS011;6175;50.956;11.064;2023-03-01T07:18:49;28.20;;;19.23;;
12224;SDS011;6175;50.956;11.064;2023-03-01T07:21:16;26.47;;;18.43;;
12224;SDS011;6175;50.956;11.064;2023-03-01T07:23:46;25.07;;;17.63;;
12224;SDS011;6175;50.956;11.064;2023-03-01T07:26:14;24.53;;;17.90;;
12224;SDS011;6175;50.956;11.064;2023-03-01T07:28:41;23.67;;;17.23;;
12224;SDS011;6175;50.956;11.064;2023-03-01T07:31:08;24.87;;;17.63;;
12224;SDS011;6175;50.956;11.064;2023-03-01T07:33:37;24.80;;;17.17;;
12224;SDS011;6175;50.956;11.064;2023-03-01T07:36:04;25.20;;;16.83;;
12224;SDS011;6175;50.956;11.064;2023-03-01T07:38:32;25.03;;;17.50;;
12224;SDS011;6175;50.956;11.064;2023-03-01T07:41:00;26.43;;;18.17;;
12224;SDS011;6175;50.956;11.064;2023-03-01T07:43:28;26.13;;;17.27;;
12224;SDS011;6175;50.956;11.064;2023-03-01T07:45:57;25.40;;;18.73;;
12224;SDS011;6175;50.956;11.064;2023-03-01T07:48:25;29.43;;;19.53;;
12224;SDS011;6175;50.956;11.064;2023-03-01T07:50:54;26.70;;;18.73;;
12224;SDS011;6175;50.956;11.064;2023-03-01T07:53:23;26.60;;;18.97;;
12224;SDS011;6175;50.956;11.064;2023-03-01T07:55:59;24.00;;;17.90;;
12224;SDS011;6175;50.956;11.064;2023-03-01T07:58:27;26.80;;;19.20;;
12224;SDS011;6175;50.956;11.064;2023-03-01T08:00:54;25.83;;;17.73;;
12224;SDS011;6175;50.956;11.064;2023-03-01T08:03:21;25.73;;;19.03;;
12224;SDS011;6175;50.956;11.064;2023-03-01T08:05:48;24.80;;;17.47;;
12224;SDS011;6175;50.956;11.064;2023-03-01T08:08:17;25.90;;;18.23;;
12224;SDS011;6175;50.956;11.064;2023-03-01T08:10:44;25.33;;;17.57;;
12224;SDS011;6175;50.956;11.064;2023-03-01T08:13:11;23.10;;;17.50;;
12224;SDS011;6175;50.956;11.064;2023-03-01T08:15:38;24.00;;;17.00;;
12224;SDS011;6175;50.956;11.064;2023-03-01T08:18:05;22.67;;;17.00;;
12224;SDS011;6175;50.956;11.064;2023-03-01T08:20:32;24.20;;;17.17;;
12224;SDS011;6175;50.956;11.064;2023-03-01T08:22:59;26.00;;;18.60;;
12224;SDS011;6175;50.956;11.064;2023-03-01T08:25:28;23.00;;;17.37;;
12224;SDS011;6175;50.956;11.064;2023-03-01T08:27:55;22.47;;;15.53;;
12224;SDS011;6175;50.956;11.064;2023-03-01T08:30:22;21.27;;;16.53;;
12224;SDS011;6175;50.956;11.064;2023-03-01T08:32:50;22.27;;;16.13;;
12224;SDS011;6175;50.956;11.064;2023-03-01T08:35:17;19.43;;;14.60;;
12224;SDS011;6175;50.956;11.064;2023-03-01T08:37:44;18.37;;;14.53;;
12224;SDS011;6175;50.956;11.064;2023-03-01T08:40:12;16.97;;;14.33;;
12224;SDS011;6175;50.956;11.064;2023-03-01T08:42:41;17.40;;;13.67;;
12224;SDS011;6175;50.956;11.064;2023-03-01T08:45:09;17.90;;;14.07;;
12224;SDS011;6175;50.956;11.064;2023-03-01T08:47:37;17.80;;;14.10;;
12224;SDS011;6175;50.956;11.064;2023-03-01T08:50:05;22.13;;;15.83;;
12224;SDS011;6175;50.956;11.064;2023-03-01T08:52:32;20.70;;;15.10;;
12224;SDS011;6175;50.956;11.064;2023-03-01T08:54:59;19.03;;;14.70;;
12224;SDS011;6175;50.956;11.064;2023-03-01T08:57:27;16.77;;;13.43;;
12224;SDS011;6175;50.956;11.064;2023-03-01T08:59:56;18.10;;;12.37;;
12224;SDS011;6175;50.956;11.064;2023-03-01T09:02:22;17.80;;;12.40;;
12224;SDS011;6175;50.956;11.064;2023-03-01T09:04:50;16.20;;;12.20;;
12224;SDS011;6175;50.956;11.064;2023-03-01T09:07:17;17.17;;;12.00;;
12224;SDS011;6175;50.956;11.064;2023-03-01T09:09:44;16.23;;;12.10;;
12224;SDS011;6175;50.956;11.064;2023-03-01T09:12:11;21.37;;;13.63;;
12224;SDS011;6175;50.956;11.064;2023-03-01T09:14:38;17.45;;;11.90;;
12224;SDS011;6175;50.956;11.064;2023-03-01T09:17:07;17.07;;;12.70;;
12224;SDS011;6175;50.956;11.064;2023-03-01T09:19:34;17.97;;;12.97;;
12224;SDS011;6175;50.956;11.064;2023-03-01T09:22:02;16.67;;;12.70;;
12224;SDS011;6175;50.956;11.064;2023-03-01T09:24:29;19.00;;;13.43;;
12224;SDS011;6175;50.956;11.064;2023-03-01T09:26:57;18.83;;;13.37;;
12224;SDS011;6175;50.956;11.064;2023-03-01T09:29:24;16.50;;;12.27;;
12224;SDS011;6175;50.956;11.064;2023-03-01T09:31:51;15.70;;;13.00;;
12224;SDS011;6175;50.956;11.064;2023-03-01T09:34:21;16.88;;;12.38;;
12224;SDS011;6175;50.956;11.064;2023-03-01T09:36:49;17.53;;;12.67;;
12224;SDS011;6175;50.956;11.064;2023-03-01T09:39:16;16.83;;;12.52;;
12224;SDS011;6175;50.956;11.064;2023-03-01T09:41:45;20.23;;;13.07;;
12224;SDS011;6175;50.956;11.064;2023-03-01T09:44:24;18.07;;;13.13;;
12224;SDS011;6175;50.956;11.064;2023-03-01T09:46:56;15.98;;;12.15;;
12224;SDS011;6175;50.956;11.064;2023-03-01T09:49:25;17.35;;;12.93;;
12224;SDS011;6175;50.956;11.064;2023-03-01T09:51:56;18.55;;;12.77;;
12224;SDS011;6175;50.956;11.064;2023-03-01T09:54:26;18.60;;;12.40;;
12224;SDS011;6175;50.956;11.064;2023-03-01T09:56:57;17.05;;;12.70;;
12224;SDS011;6175;50.956;11.064;2023-03-01T09:59:33;19.33;;;13.55;;
12224;SDS011;6175;50.956;11.064;2023-03-01T10:02:14;16.60;;;13.18;;
12224;SDS011;6175;50.956;11.064;2023-03-01T10:04:49;20.55;;;13.55;;
12224;SDS011;6175;50.956;11.064;2023-03-01T10:07:21;17.83;;;12.77;;
12224;SDS011;6175;50.956;11.064;2023-03-01T10:09:57;17.30;;;12.13;;
12224;SDS011;6175;50.956;11.064;2023-03-01T10:12:26;17.90;;;12.63;;
12224;SDS011;6175;50.956;11.064;2023-03-01T10:15:00;16.38;;;12.43;;
12224;SDS011;6175;50.956;11.064;2023-03-01T10:17:33;17.70;;;12.05;;
12224;SDS011;6175;50.956;11.064;2023-03-01T10:20:17;18.45;;;13.07;;
12224;SDS011;6175;50.956;11.064;2023-03-01T10:22:46;16.20;;;11.95;;
12224;SDS011;6175;50.956;11.064;2023-03-01T10:25:17;15.85;;;11.85;;
12224;SDS011;6175;50.956;11.064;2023-03-01T10:27:59;17.17;;;12.10;;
12224;SDS011;6175;50.956;11.064;2023-03-01T10:30:32;17.20;;;12.45;;
12224;SDS011;6175;50.956;11.064;2023-03-01T10:33:03;18.02;;;12.30;;
12224;SDS011;6175;50.956;11.064;2023-03-01T10:35:42;14.68;;;11.00;;
12224;SDS011;6175;50.956;11.064;2023-03-01T10:38:09;16.70;;;12.18;;
12224;SDS011;6175;50.956;11.064;2023-03-01T10:40:50;17.92;;;12.88;;
12224;SDS011;6175;50.956;11.064;2023-03-01T10:43:18;16.55;;;11.02;;
12224;SDS011;6175;50.956;11.064;2023-03-01T10:45:45;16.52;;;12.35;;
12224;SDS011;6175;50.956;11.064;2023-03-01T10:48:13;16.38;;;11.85;;
12224;SDS011;6175;50.956;11.064;2023-03-01T10:50:43;19.70;;;12.77;;
12224;SDS011;6175;50.956;11.064;2023-03-01T10:53:26;17.45;;;12.63;;
12224;SDS011;6175;50.956;11.064;2023-03-01T10:55:58;16.90;;;12.07;;
12224;SDS011;6175;50.956;11.064;2023-03-01T10:58:26;18.33;;;12.32;;
12224;SDS011;6175;50.956;11.064;2023-03-01T11:00:55;17.88;;;12.52;;
12224;SDS011;6175;50.956;11.064;2023-03-01T11:03:23;16.33;;;12.20;;
12224;SDS011;6175;50.956;11.064;2023-03-01T11:08:47;14.05;;;11.48;;
12224;SDS011;6175;50.956;11.064;2023-03-01T11:11:21;15.75;;;11.73;;
12224;SDS011;6175;50.956;11.064;2023-03-01T11:13:52;16.38;;;12.20;;
12224;SDS011;6175;50.956;11.064;2023-03-01T11:16:28;12.80;;;10.40;;
12224;SDS011;6175;50.956;11.064;2023-03-01T11:21:55;16.50;;;12.18;;
12224;SDS011;6175;50.956;11.064;2023-03-01T11:24:27;17.58;;;12.00;;
12224;SDS011;6175;50.956;11.064;2023-03-01T11:27:03;15.80;;;11.95;;
12224;SDS011;6175;50.956;11.064;2023-03-01T11:29:35;18.27;;;12.38;;
12224;SDS011;6175;50.956;11.064;2023-03-01T11:32:07;17.20;;;12.35;;
12224;SDS011;6175;50.956;11.064;2023-03-01T11:34:38;16.13;;;11.98;;
12224;SDS011;6175;50.956;11.064;2023-03-01T11:37:14;17.08;;;11.98;;
12224;SDS011;6175;50.956;11.064;2023-03-01T11:39:52;15.32;;;11.50;;
12224;SDS011;6175;50.956;11.064;2023-03-01T11:42:25;16.13;;;12.98;;
12224;SDS011;6175;50.956;11.064;2023-03-01T11:44:59;18.63;;;13.50;;
12224;SDS011;6175;50.956;11.064;2023-03-01T11:47:33;17.98;;;12.10;;
12224;SDS011;6175;50.956;11.064;2023-03-01T11:50:19;17.90;;;11.98;;
12224;SDS011;6175;50.956;11.064;2023-03-01T11:52:56;16.83;;;12.32;;
12224;SDS011;6175;50.956;11.064;2023-03-01T11:55:43;14.82;;;12.05;;
12224;SDS011;6175;50.956;11.064;2023-03-01T11:58:25;17.77;;;12.20;;
12224;SDS011;6175;50.956;11.064;2023-03-01T12:01:02;20.65;;;13.95;;
12224;SDS011;6175;50.956;11.064;2023-03-01T12:03:51;15.27;;;12.35;;
12224;SDS011;6175;50.956;11.064;2023-03-01T12:09:30;14.70;;;11.60;;
12224;SDS011;6175;50.956;11.064;2023-03-01T12:12:29;16.30;;;11.52;;
12224;SDS011;6175;50.956;11.064;2023-03-01T12:15:15;15.85;;;12.70;;
12224;SDS011;6175;50.956;11.064;2023-03-01T12:18:07;22.15;;;13.10;;
12224;SDS011;6175;50.956;11.064;2023-03-01T12:20:54;18.02;;;12.25;;
12224;SDS011;6175;50.956;11.064;2023-03-01T12:26:18;18.50;;;12.15;;
12224;SDS011;6175;50.956;11.064;2023-03-01T12:28:55;17.25;;;11.80;;
12224;SDS011;6175;50.956;11.064;2023-03-01T12:31:46;15.57;;;11.45;;
12224;SDS011;6175;50.956;11.064;2023-03-01T12:34:38;16.55;;;11.75;;
12224;SDS011;6175;50.956;11.064;2023-03-01T12:37:18;17.48;;;12.80;;
12224;SDS011;6175;50.956;11.064;2023-03-01T12:39:56;17.13;;;11.68;;
12224;SDS011;6175;50.956;11.064;2023-03-01T12:42:40;16.58;;;11.70;;
12224;SDS011;6175;50.956;11.064;2023-03-01T12:45:24;20.50;;;12.90;;
12224;SDS011;6175;50.956;11.064;2023-03-01T12:48:03;15.70;;;12.50;;
12224;SDS011;6175;50.956;11.064;2023-03-01T12:50:40;14.85;;;11.57;;
12224;SDS011;6175;50.956;11.064;2023-03-01T12:53:15;15.93;;;11.50;;
12224;SDS011;6175;50.956;11.064;2023-03-01T12:55:48;14.43;;;11.05;;
12224;SDS011;6175;50.956;11.064;2023-03-01T12:58:20;16.45;;;10.82;;
12224;SDS011;6175;50.956;11.064;2023-03-01T13:00:59;15.95;;;11.95;;
12224;SDS011;6175;50.956;11.064;2023-03-01T13:03:36;16.58;;;12.05;;
12224;SDS011;6175;50.956;11.064;2023-03-01T13:06:15;16.15;;;11.55;;
12224;SDS011;6175;50.956;11.064;2023-03-01T13:08:48;15.48;;;11.50;;
12224;SDS011;6175;50.956;11.064;2023-03-01T13:11:22;15.13;;;11.68;;
12224;SDS011;6175;50.956;11.064;2023-03-01T13:14:35;16.40;;;12.68;;
12224;SDS011;6175;50.956;11.064;2023-03-01T13:17:01;16.55;;;11.43;;
12224;SDS011;6175;50.956;11.064;2023-03-01T13:19:28;16.45;;;12.10;;
12224;SDS011;6175;50.956;11.064;2023-03-01T13:21:57;16.95;;;12.05;;
12224;SDS011;6175;50.956;11.064;2023-03-01T13:24:25;15.15;;;12.30;;
12224;SDS011;6175;50.956;11.064;2023-03-01T13:29:55;16.73;;;12.20;;
12224;SDS011;6175;50.956;11.064;2023-03-01T13:32:25;16.40;;;11.85;;
12224;SDS011;6175;50.956;11.064;2023-03-01T13:34:55;18.23;;;13.25;;
12224;SDS011;6175;50.956;11.064;2023-03-01T13:37:24;15.52;;;11.93;;
12224;SDS011;6175;50.956;11.064;2023-03-01T13:39:55;18.88;;;12.90;;
12224;SDS011;6175;50.956;11.064;2023-03-01T13:42:42;15.85;;;12.13;;
12224;SDS011;6175;50.956;11.064;2023-03-01T13:45:31;17.20;;;12.57;;
12224;SDS011;6175;50.956;11.064;2023-03-01T13:48:02;16.33;;;12.00;;
12224;SDS011;6175;50.956;11.064;2023-03-01T13:50:37;19.90;;;13.93;;
12224;SDS011;6175;50.956;11.064;2023-03-01T13:53:12;15.38;;;11.98;;
12224;SDS011;6175;50.956;11.064;2023-03-01T13:55:44;18.02;;;13.30;;
12224;SDS011;6175;50.956;11.064;2023-03-01T13:58:18;19.55;;;13.60;;
12224;SDS011;6175;50.956;11.064;2023-03-01T14:00:54;17.45;;;13.40;;
12224;SDS011;6175;50.956;11.064;2023-03-01T14:03:22;21.10;;;14.18;;
12224;SDS011;6175;50.956;11.064;2023-03-01T14:05:59;20.60;;;14.23;;
12224;SDS011;6175;50.956;11.064;2023-03-01T14:08:31;18.25;;;13.65;;
12224;SDS011;6175;50.956;11.064;2023-03-01T14:11:09;19.85;;;13.75;;
12224;SDS011;6175;50.956;11.064;2023-03-01T14:14:06;17.40;;;12.98;;
12224;SDS011;6175;50.956;11.064;2023-03-01T14:16:56;18.70;;;14.15;;
12224;SDS011;6175;50.956;11.064;2023-03-01T14:19:31;20.00;;;13.55;;
12224;SDS011;6175;50.956;11.064;2023-03-01T14:22:02;17.27;;;13.15;;
12224;SDS011;6175;50.956;11.064;2023-03-01T14:24:37;18.75;;;13.27;;
12224;SDS011;6175;50.956;11.064;2023-03-01T14:27:09;18.63;;;13.27;;
12224;SDS011;6175;50.956;11.064;2023-03-01T14:29:38;17.70;;;13.55;;
12224;SDS011;6175;50.956;11.064;2023-03-01T14:32:11;21.88;;;14.40;;
12224;SDS011;6175;50.956;11.064;2023-03-01T14:34:45;21.27;;;13.48;;
12224;SDS011;6175;50.956;11.064;2023-03-01T14:37:20;18.20;;;13.15;;
12224;SDS011;6175;50.956;11.064;2023-03-01T14:39:48;18.60;;;13.88;;
12224;SDS011;6175;50.956;11.064;2023-03-01T14:42:16;22.38;;;14.43;;
12224;SDS011;6175;50.956;11.064;2023-03-01T14:44:44;19.00;;;13.80;;
12224;SDS011;6175;50.956;11.064;2023-03-01T14:47:16;19.42;;;13.63;;
12224;SDS011;6175;50.956;11.064;2023-03-01T14:49:51;16.73;;;12.77;;
12224;SDS011;6175;50.956;11.064;2023-03-01T14:52:25;20.00;;;13.68;;
12224;SDS011;6175;50.956;11.064;2023-03-01T14:54:59;18.23;;;13.57;;
12224;SDS011;6175;50.956;11.064;2023-03-01T14:57:28;17.83;;;13.55;;